sensor_id;sensor_type;location;lat;lon;timestamp;pressure;altitude;pressure_sealevel;temperature;humidity
55490;BME280;44029;52.956;4.772;2023-08-20T00:00:10;102113.72;;;22.57;100.00
55490;BME280;44029;52.956;4.772;2023-08-20T00:02:37;102115.91;;;22.79;100.00
55490;BME280;44029;52.956;4.772;2023-08-20T00:05:03;102116.72;;;22.61;100.00
55490;BME280;44029;52.956;4.772;2023-08-20T00:07:30;102123.44;;;22.59;100.00
55490;BME280;44029;52.956;4.772;2023-08-20T00:09:56;102127.47;;;22.29;100.00
55490;BME280;44029;52.956;4.772;2023-08-20T00:12:21;102139.28;;;22.21;100.00
55490;BME280;44029;52.956;4.772;2023-08-20T00:15:01;102144.75;;;22.31;100.00
55490;BME280;44029;52.956;4.772;2023-08-20T00:17:40;102136.25;;;22.42;100.00
55490;BME280;44029;52.956;4.772;2023-08-20T00:20:09;102145.06;;;22.30;100.00
55490;BME280;44029;52.956;4.772;2023-08-20T00:22:36;102142.06;;;21.97;100.00
55490;BME280;44029;52.956;4.772;2023-08-20T00:25:01;102143.28;;;21.86;100.00
55490;BME280;44029;52.956;4.772;2023-08-20T00:27:28;102141.59;;;21.90;100.00
55490;BME280;44029;52.956;4.772;2023-08-20T00:29:53;102152.16;;;21.93;100.00
55490;BME280;44029;52.956;4.772;2023-08-20T00:32:18;102152.28;;;22.07;100.00
55490;BME280;44029;52.956;4.772;2023-08-20T00:34:44;102159.13;;;22.19;100.00
55490;BME280;44029;52.956;4.772;2023-08-20T00:37:09;102148.94;;;22.34;100.00
55490;BME280;44029;52.956;4.772;2023-08-20T00:39:34;102156.31;;;22.19;100.00
55490;BME280;44029;52.956;4.772;2023-08-20T00:42:00;102156.28;;;22.25;100.00
55490;BME280;44029;52.956;4.772;2023-08-20T00:44:25;102167.25;;;22.16;100.00
55490;BME280;44029;52.956;4.772;2023-08-20T00:46:51;102155.19;;;22.20;100.00
55490;BME280;44029;52.956;4.772;2023-08-20T00:49:17;102165.34;;;22.11;100.00
55490;BME280;44029;52.956;4.772;2023-08-20T00:51:43;102167.34;;;22.35;100.00
55490;BME280;44029;52.956;4.772;2023-08-20T00:54:09;102174.00;;;22.10;100.00
55490;BME280;44029;52.956;4.772;2023-08-20T00:56:35;102178.28;;;22.02;100.00
55490;BME280;44029;52.956;4.772;2023-08-20T00:59:00;102188.75;;;22.15;100.00
55490;BME280;44029;52.956;4.772;2023-08-20T01:01:26;102180.72;;;22.09;100.00
55490;BME280;44029;52.956;4.772;2023-08-20T01:03:51;102175.25;;;21.98;100.00
55490;BME280;44029;52.956;4.772;2023-08-20T01:12:13;102175.59;;;21.62;100.00
55490;BME280;44029;52.956;4.772;2023-08-20T01:14:40;102179.72;;;21.70;100.00
55490;BME280;44029;52.956;4.772;2023-08-20T01:17:05;102173.22;;;21.51;100.00
55490;BME280;44029;52.956;4.772;2023-08-20T01:19:31;102180.84;;;21.69;100.00
55490;BME280;44029;52.956;4.772;2023-08-20T01:22:11;102178.28;;;22.02;100.00
55490;BME280;44029;52.956;4.772;2023-08-20T01:25:01;102177.16;;;22.03;100.00
55490;BME280;44029;52.956;4.772;2023-08-20T01:30:14;102190.91;;;21.94;100.00
55490;BME280;44029;52.956;4.772;2023-08-20T01:32:41;102195.72;;;21.89;100.00
55490;BME280;44029;52.956;4.772;2023-08-20T01:35:12;102197.44;;;21.85;100.00
55490;BME280;44029;52.956;4.772;2023-08-20T01:37:41;102194.56;;;21.66;100.00
55490;BME280;44029;52.956;4.772;2023-08-20T01:40:07;102194.94;;;21.83;100.00
55490;BME280;44029;52.956;4.772;2023-08-20T01:42:37;102200.22;;;21.85;100.00
55490;BME280;44029;52.956;4.772;2023-08-20T01:45:03;102198.75;;;21.92;100.00
55490;BME280;44029;52.956;4.772;2023-08-20T01:47:29;102193.63;;;21.75;100.00
55490;BME280;44029;52.956;4.772;2023-08-20T01:49:54;102194.19;;;21.72;100.00
55490;BME280;44029;52.956;4.772;2023-08-20T01:52:20;102191.81;;;21.90;100.00
55490;BME280;44029;52.956;4.772;2023-08-20T01:54:45;102189.28;;;21.93;100.00
55490;BME280;44029;52.956;4.772;2023-08-20T01:57:11;102190.44;;;21.87;100.00
55490;BME280;44029;52.956;4.772;2023-08-20T01:59:36;102197.53;;;21.74;100.00
55490;BME280;44029;52.956;4.772;2023-08-20T02:02:01;102194.44;;;22.05;100.00
55490;BME280;44029;52.956;4.772;2023-08-20T02:04:27;102187.69;;;21.82;100.00
55490;BME280;44029;52.956;4.772;2023-08-20T02:06:52;102196.94;;;21.77;100.00
55490;BME280;44029;52.956;4.772;2023-08-20T02:09:18;102198.63;;;21.78;100.00
55490;BME280;44029;52.956;4.772;2023-08-20T02:11:45;102198.66;;;22.03;100.00
55490;BME280;44029;52.956;4.772;2023-08-20T02:14:10;102193.50;;;21.86;100.00
55490;BME280;44029;52.956;4.772;2023-08-20T02:16:35;102195.13;;;21.92;100.00
55490;BME280;44029;52.956;4.772;2023-08-20T02:19:02;102191.88;;;22.09;100.00
55490;BME280;44029;52.956;4.772;2023-08-20T02:21:28;102184.38;;;22.04;100.00
55490;BME280;44029;52.956;4.772;2023-08-20T02:23:54;102191.06;;;22.08;100.00
55490;BME280;44029;52.956;4.772;2023-08-20T02:26:19;102180.03;;;21.93;100.00
55490;BME280;44029;52.956;4.772;2023-08-20T02:28:44;102186.31;;;22.09;100.00
55490;BME280;44029;52.956;4.772;2023-08-20T02:31:10;102191.44;;;21.96;100.00
55490;BME280;44029;52.956;4.772;2023-08-20T02:33:35;102185.56;;;21.98;100.00
55490;BME280;44029;52.956;4.772;2023-08-20T02:36:02;102184.16;;;22.00;100.00
55490;BME280;44029;52.956;4.772;2023-08-20T02:38:28;102199.41;;;21.84;100.00
55490;BME280;44029;52.956;4.772;2023-08-20T02:40:53;102207.84;;;21.74;100.00
55490;BME280;44029;52.956;4.772;2023-08-20T02:43:19;102199.88;;;21.62;100.00
55490;BME280;44029;52.956;4.772;2023-08-20T02:45:44;102203.91;;;21.46;100.00
55490;BME280;44029;52.956;4.772;2023-08-20T02:48:10;102200.75;;;21.57;100.00
55490;BME280;44029;52.956;4.772;2023-08-20T02:50:35;102204.97;;;21.55;100.00
55490;BME280;44029;52.956;4.772;2023-08-20T02:53:01;102205.53;;;21.52;100.00
55490;BME280;44029;52.956;4.772;2023-08-20T02:55:26;102207.75;;;21.55;100.00
55490;BME280;44029;52.956;4.772;2023-08-20T02:57:52;102217.22;;;21.54;100.00
55490;BME280;44029;52.956;4.772;2023-08-20T03:00:17;102219.91;;;21.69;100.00
55490;BME280;44029;52.956;4.772;2023-08-20T03:02:42;102218.78;;;21.65;100.00
55490;BME280;44029;52.956;4.772;2023-08-20T03:05:09;102215.56;;;21.53;100.00
55490;BME280;44029;52.956;4.772;2023-08-20T03:07:34;102212.72;;;21.58;100.00
55490;BME280;44029;52.956;4.772;2023-08-20T03:10:00;102211.47;;;21.45;100.00
55490;BME280;44029;52.956;4.772;2023-08-20T03:12:25;102213.72;;;21.72;100.00
55490;BME280;44029;52.956;4.772;2023-08-20T03:14:51;102218.38;;;21.82;100.00
55490;BME280;44029;52.956;4.772;2023-08-20T03:17:16;102211.81;;;21.68;100.00
55490;BME280;44029;52.956;4.772;2023-08-20T03:19:54;102216.44;;;21.83;100.00
55490;BME280;44029;52.956;4.772;2023-08-20T03:22:21;102224.25;;;21.80;100.00
55490;BME280;44029;52.956;4.772;2023-08-20T03:24:47;102222.50;;;21.90;100.00
55490;BME280;44029;52.956;4.772;2023-08-20T03:27:12;102220.25;;;21.92;100.00
55490;BME280;44029;52.956;4.772;2023-08-20T03:29:37;102220.63;;;21.80;100.00
55490;BME280;44029;52.956;4.772;2023-08-20T03:32:03;102223.28;;;21.95;100.00
55490;BME280;44029;52.956;4.772;2023-08-20T03:34:28;102226.63;;;22.27;100.00
55490;BME280;44029;52.956;4.772;2023-08-20T03:36:54;102218.28;;;22.22;100.00
55490;BME280;44029;52.956;4.772;2023-08-20T03:39:19;102226.06;;;22.25;100.00
55490;BME280;44029;52.956;4.772;2023-08-20T03:41:45;102229.03;;;22.33;100.00
55490;BME280;44029;52.956;4.772;2023-08-20T03:44:10;102227.44;;;22.27;100.00
55490;BME280;44029;52.956;4.772;2023-08-20T03:46:35;102237.09;;;22.40;100.00
55490;BME280;44029;52.956;4.772;2023-08-20T03:49:01;102238.16;;;22.44;100.00
55490;BME280;44029;52.956;4.772;2023-08-20T03:51:26;102228.03;;;22.48;100.00
55490;BME280;44029;52.956;4.772;2023-08-20T03:53:51;102234.81;;;22.66;100.00
55490;BME280;44029;52.956;4.772;2023-08-20T03:56:17;102236.78;;;22.42;100.00
55490;BME280;44029;52.956;4.772;2023-08-20T03:58:42;102238.03;;;22.30;100.00
55490;BME280;44029;52.956;4.772;2023-08-20T04:01:07;102244.78;;;22.19;100.00
55490;BME280;44029;52.956;4.772;2023-08-20T04:03:33;102240.25;;;22.28;100.00
55490;BME280;44029;52.956;4.772;2023-08-20T04:05:58;102237.72;;;22.32;100.00
55490;BME280;44029;52.956;4.772;2023-08-20T04:08:23;102246.75;;;22.18;100.00
55490;BME280;44029;52.956;4.772;2023-08-20T04:10:49;102241.41;;;22.22;100.00
55490;BME280;44029;52.956;4.772;2023-08-20T04:13:14;102242.41;;;22.07;100.00
55490;BME280;44029;52.956;4.772;2023-08-20T04:15:41;102251.75;;;22.22;100.00
55490;BME280;44029;52.956;4.772;2023-08-20T04:18:06;102247.00;;;22.22;100.00
55490;BME280;44029;52.956;4.772;2023-08-20T04:20:32;102253.50;;;22.17;100.00
55490;BME280;44029;52.956;4.772;2023-08-20T04:22:57;102256.28;;;22.17;100.00
55490;BME280;44029;52.956;4.772;2023-08-20T04:25:23;102252.28;;;22.29;100.00
55490;BME280;44029;52.956;4.772;2023-08-20T04:27:48;102245.94;;;22.18;100.00
55490;BME280;44029;52.956;4.772;2023-08-20T04:30:13;102254.03;;;22.19;100.00
55490;BME280;44029;52.956;4.772;2023-08-20T04:32:39;102263.47;;;22.24;100.00
55490;BME280;44029;52.956;4.772;2023-08-20T04:35:04;102259.81;;;22.28;100.00
55490;BME280;44029;52.956;4.772;2023-08-20T04:37:30;102263.47;;;22.24;100.00
55490;BME280;44029;52.956;4.772;2023-08-20T04:39:55;102263.75;;;22.22;100.00
55490;BME280;44029;52.956;4.772;2023-08-20T04:42:21;102267.84;;;22.35;100.00
55490;BME280;44029;52.956;4.772;2023-08-20T04:44:46;102264.94;;;22.45;100.00
55490;BME280;44029;52.956;4.772;2023-08-20T04:47:12;102260.47;;;22.44;100.00
55490;BME280;44029;52.956;4.772;2023-08-20T04:49:38;102266.31;;;22.72;100.00
55490;BME280;44029;52.956;4.772;2023-08-20T04:52:03;102259.16;;;23.47;100.00
55490;BME280;44029;52.956;4.772;2023-08-20T04:54:29;102249.72;;;23.76;100.00
55490;BME280;44029;52.956;4.772;2023-08-20T04:56:54;102239.63;;;24.54;100.00
55490;BME280;44029;52.956;4.772;2023-08-20T04:59:19;102226.59;;;25.14;100.00
55490;BME280;44029;52.956;4.772;2023-08-20T05:01:45;102225.34;;;25.06;100.00
55490;BME280;44029;52.956;4.772;2023-08-20T05:04:10;102231.00;;;24.37;100.00
55490;BME280;44029;52.956;4.772;2023-08-20T05:06:35;102236.97;;;24.02;100.00
55490;BME280;44029;52.956;4.772;2023-08-20T05:09:01;102250.22;;;23.45;100.00
55490;BME280;44029;52.956;4.772;2023-08-20T05:11:26;102253.25;;;23.67;100.00
55490;BME280;44029;52.956;4.772;2023-08-20T05:13:55;102242.88;;;24.75;100.00
55490;BME280;44029;52.956;4.772;2023-08-20T05:16:20;102235.34;;;25.71;100.00
55490;BME280;44029;52.956;4.772;2023-08-20T05:18:45;102223.56;;;25.92;100.00
55490;BME280;44029;52.956;4.772;2023-08-20T05:21:11;102228.16;;;26.10;100.00
55490;BME280;44029;52.956;4.772;2023-08-20T05:23:39;102217.16;;;26.71;100.00
55490;BME280;44029;52.956;4.772;2023-08-20T05:26:06;102218.88;;;26.50;100.00
55490;BME280;44029;52.956;4.772;2023-08-20T05:28:31;102215.38;;;27.02;100.00
55490;BME280;44029;52.956;4.772;2023-08-20T05:30:56;102219.19;;;27.67;100.00
55490;BME280;44029;52.956;4.772;2023-08-20T05:33:22;102220.44;;;28.43;100.00
55490;BME280;44029;52.956;4.772;2023-08-20T05:35:48;102215.41;;;28.66;100.00
55490;BME280;44029;52.956;4.772;2023-08-20T05:38:14;102214.63;;;28.48;100.00
55490;BME280;44029;52.956;4.772;2023-08-20T05:40:39;102213.41;;;29.17;100.00
55490;BME280;44029;52.956;4.772;2023-08-20T05:43:04;102227.16;;;29.40;100.00
55490;BME280;44029;52.956;4.772;2023-08-20T05:45:30;102221.03;;;29.71;100.00
55490;BME280;44029;52.956;4.772;2023-08-20T05:47:55;102217.19;;;30.34;100.00
55490;BME280;44029;52.956;4.772;2023-08-20T05:50:20;102218.81;;;30.22;100.00
55490;BME280;44029;52.956;4.772;2023-08-20T05:52:46;102219.94;;;30.09;100.00
55490;BME280;44029;52.956;4.772;2023-08-20T05:55:11;102223.16;;;30.32;100.00
55490;BME280;44029;52.956;4.772;2023-08-20T05:57:37;102215.47;;;31.07;100.00
55490;BME280;44029;52.956;4.772;2023-08-20T06:00:03;102217.38;;;30.78;100.00
55490;BME280;44029;52.956;4.772;2023-08-20T06:02:29;102212.69;;;30.57;100.00
55490;BME280;44029;52.956;4.772;2023-08-20T06:04:55;102209.00;;;31.06;100.00
55490;BME280;44029;52.956;4.772;2023-08-20T06:07:20;102212.66;;;31.63;100.00
55490;BME280;44029;52.956;4.772;2023-08-20T06:09:46;102216.28;;;31.48;100.00
55490;BME280;44029;52.956;4.772;2023-08-20T06:12:11;102217.09;;;31.48;100.00
55490;BME280;44029;52.956;4.772;2023-08-20T06:14:38;102218.34;;;30.82;100.00
55490;BME280;44029;52.956;4.772;2023-08-20T06:17:03;102211.88;;;29.74;100.00
55490;BME280;44029;52.956;4.772;2023-08-20T06:19:29;102223.78;;;29.80;100.00
55490;BME280;44029;52.956;4.772;2023-08-20T06:21:54;102225.66;;;29.76;100.00
55490;BME280;44029;52.956;4.772;2023-08-20T06:24:20;102227.75;;;30.86;100.00
55490;BME280;44029;52.956;4.772;2023-08-20T06:26:45;102224.00;;;30.70;100.00
55490;BME280;44029;52.956;4.772;2023-08-20T06:29:10;102223.63;;;30.96;100.00
55490;BME280;44029;52.956;4.772;2023-08-20T06:31:36;102219.16;;;30.21;100.00
55490;BME280;44029;52.956;4.772;2023-08-20T06:34:01;102220.25;;;32.03;100.00
55490;BME280;44029;52.956;4.772;2023-08-20T06:36:27;102215.03;;;30.80;100.00
55490;BME280;44029;52.956;4.772;2023-08-20T06:38:53;102217.28;;;31.27;100.00
55490;BME280;44029;52.956;4.772;2023-08-20T06:41:18;102220.66;;;31.73;100.00
55490;BME280;44029;52.956;4.772;2023-08-20T06:43:43;102219.50;;;30.32;100.00
55490;BME280;44029;52.956;4.772;2023-08-20T06:46:09;102216.78;;;30.84;100.00
55490;BME280;44029;52.956;4.772;2023-08-20T06:48:34;102215.78;;;31.46;100.00
55490;BME280;44029;52.956;4.772;2023-08-20T06:51:11;102218.25;;;32.20;100.00
55490;BME280;44029;52.956;4.772;2023-08-20T06:53:37;102218.31;;;32.07;100.00
55490;BME280;44029;52.956;4.772;2023-08-20T06:56:02;102213.75;;;32.50;100.00
55490;BME280;44029;52.956;4.772;2023-08-20T06:58:28;102217.38;;;30.78;100.00
55490;BME280;44029;52.956;4.772;2023-08-20T07:00:53;102226.06;;;29.65;100.00
55490;BME280;44029;52.956;4.772;2023-08-20T07:03:19;102230.03;;;29.10;100.00
55490;BME280;44029;52.956;4.772;2023-08-20T07:05:44;102238.94;;;29.21;100.00
55490;BME280;44029;52.956;4.772;2023-08-20T07:08:09;102239.06;;;29.24;100.00
55490;BME280;44029;52.956;4.772;2023-08-20T07:10:35;102245.47;;;28.83;100.00
55490;BME280;44029;52.956;4.772;2023-08-20T07:13:00;102248.19;;;28.70;100.00
55490;BME280;44029;52.956;4.772;2023-08-20T07:15:25;102260.22;;;28.59;100.00
55490;BME280;44029;52.956;4.772;2023-08-20T07:17:51;102265.44;;;28.30;100.00
55490;BME280;44029;52.956;4.772;2023-08-20T07:20:16;102263.88;;;27.94;100.00
55490;BME280;44029;52.956;4.772;2023-08-20T07:22:42;102271.38;;;27.55;100.00
55490;BME280;44029;52.956;4.772;2023-08-20T07:25:08;102265.91;;;27.68;100.00
55490;BME280;44029;52.956;4.772;2023-08-20T07:27:33;102268.72;;;27.68;100.00
55490;BME280;44029;52.956;4.772;2023-08-20T07:29:59;102267.03;;;27.75;100.00
55490;BME280;44029;52.956;4.772;2023-08-20T07:32:24;102271.69;;;27.54;100.00
55490;BME280;44029;52.956;4.772;2023-08-20T07:34:49;102272.53;;;28.45;100.00
55490;BME280;44029;52.956;4.772;2023-08-20T07:37:15;102275.97;;;28.04;100.00
55490;BME280;44029;52.956;4.772;2023-08-20T07:39:41;102281.63;;;28.51;100.00
55490;BME280;44029;52.956;4.772;2023-08-20T07:42:06;102285.09;;;28.57;100.00
55490;BME280;44029;52.956;4.772;2023-08-20T07:44:31;102269.44;;;28.68;100.00
55490;BME280;44029;52.956;4.772;2023-08-20T07:46:57;102280.25;;;30.01;100.00
55490;BME280;44029;52.956;4.772;2023-08-20T07:49:22;102282.13;;;29.97;100.00
55490;BME280;44029;52.956;4.772;2023-08-20T07:51:48;102281.47;;;29.79;100.00
55490;BME280;44029;52.956;4.772;2023-08-20T07:54:14;102276.16;;;29.77;100.00
55490;BME280;44029;52.956;4.772;2023-08-20T07:56:39;102279.47;;;29.58;100.00
55490;BME280;44029;52.956;4.772;2023-08-20T07:59:05;102281.19;;;30.05;100.00
55490;BME280;44029;52.956;4.772;2023-08-20T08:01:30;102285.13;;;30.25;100.00
55490;BME280;44029;52.956;4.772;2023-08-20T08:03:55;102285.91;;;29.80;100.00
55490;BME280;44029;52.956;4.772;2023-08-20T08:06:21;102287.81;;;30.21;100.00
55490;BME280;44029;52.956;4.772;2023-08-20T08:08:49;102293.19;;;30.02;100.00
55490;BME280;44029;52.956;4.772;2023-08-20T08:11:14;102295.66;;;30.49;100.00
55490;BME280;44029;52.956;4.772;2023-08-20T08:13:39;102297.94;;;31.46;100.00
55490;BME280;44029;52.956;4.772;2023-08-20T08:16:05;102299.69;;;31.10;100.00
55490;BME280;44029;52.956;4.772;2023-08-20T08:18:30;102305.69;;;30.59;100.00
55490;BME280;44029;52.956;4.772;2023-08-20T08:20:56;102298.38;;;30.82;100.00
55490;BME280;44029;52.956;4.772;2023-08-20T08:23:21;102300.16;;;30.62;100.00
55490;BME280;44029;52.956;4.772;2023-08-20T08:25:46;102300.00;;;31.20;100.00
55490;BME280;44029;52.956;4.772;2023-08-20T08:28:12;102307.91;;;31.96;100.00
55490;BME280;44029;52.956;4.772;2023-08-20T08:30:38;102306.75;;;30.67;100.00
55490;BME280;44029;52.956;4.772;2023-08-20T08:33:05;102308.34;;;30.31;100.00
55490;BME280;44029;52.956;4.772;2023-08-20T08:35:30;102307.84;;;30.29;100.00
55490;BME280;44029;52.956;4.772;2023-08-20T08:37:55;102302.78;;;29.76;100.00
55490;BME280;44029;52.956;4.772;2023-08-20T08:40:23;102304.78;;;30.92;100.00
55490;BME280;44029;52.956;4.772;2023-08-20T08:42:49;102310.97;;;30.85;100.00
55490;BME280;44029;52.956;4.772;2023-08-20T08:45:18;102313.00;;;30.14;100.00
55490;BME280;44029;52.956;4.772;2023-08-20T08:47:44;102316.22;;;30.95;100.00
55490;BME280;44029;52.956;4.772;2023-08-20T08:50:10;102314.16;;;31.20;100.00
55490;BME280;44029;52.956;4.772;2023-08-20T08:52:37;102311.13;;;31.01;100.00
55490;BME280;44029;52.956;4.772;2023-08-20T08:55:04;102321.06;;;30.95;100.00
55490;BME280;44029;52.956;4.772;2023-08-20T08:57:30;102313.72;;;31.06;100.00
55490;BME280;44029;52.956;4.772;2023-08-20T08:59:56;102309.00;;;30.98;100.00
55490;BME280;44029;52.956;4.772;2023-08-20T09:02:21;102315.44;;;30.37;100.00
55490;BME280;44029;52.956;4.772;2023-08-20T09:04:48;102325.25;;;30.06;100.00
55490;BME280;44029;52.956;4.772;2023-08-20T09:07:14;102323.25;;;30.52;100.00
55490;BME280;44029;52.956;4.772;2023-08-20T09:09:44;102325.25;;;30.89;100.00
55490;BME280;44029;52.956;4.772;2023-08-20T09:12:14;102325.59;;;31.24;100.00
55490;BME280;44029;52.956;4.772;2023-08-20T09:14:40;102325.88;;;30.94;100.00
55490;BME280;44029;52.956;4.772;2023-08-20T09:17:08;102326.06;;;30.40;100.00
55490;BME280;44029;52.956;4.772;2023-08-20T09:19:37;102327.00;;;30.69;100.00
55490;BME280;44029;52.956;4.772;2023-08-20T09:22:03;102336.81;;;30.25;100.00
55490;BME280;44029;52.956;4.772;2023-08-20T09:24:41;102336.34;;;29.90;100.00
55490;BME280;44029;52.956;4.772;2023-08-20T09:27:11;102333.16;;;29.71;100.00
55490;BME280;44029;52.956;4.772;2023-08-20T09:32:13;102341.19;;;28.88;100.00
55490;BME280;44029;52.956;4.772;2023-08-20T09:34:39;102345.16;;;28.87;100.00
55490;BME280;44029;52.956;4.772;2023-08-20T09:37:12;102336.97;;;29.03;100.00
55490;BME280;44029;52.956;4.772;2023-08-20T09:39:37;102345.16;;;28.87;100.00
55490;BME280;44029;52.956;4.772;2023-08-20T09:42:04;102347.91;;;28.75;100.00
55490;BME280;44029;52.956;4.772;2023-08-20T09:44:35;102349.38;;;28.72;100.00
55490;BME280;44029;52.956;4.772;2023-08-20T09:47:07;102341.56;;;29.16;100.00
55490;BME280;44029;52.956;4.772;2023-08-20T09:49:37;102341.88;;;28.85;100.00
55490;BME280;44029;52.956;4.772;2023-08-20T09:52:08;102339.44;;;29.04;100.00
55490;BME280;44029;52.956;4.772;2023-08-20T09:54:49;102337.00;;;29.75;100.00
55490;BME280;44029;52.956;4.772;2023-08-20T09:57:26;102334.56;;;29.64;100.00
55490;BME280;44029;52.956;4.772;2023-08-20T09:59:52;102337.97;;;29.28;100.00
55490;BME280;44029;52.956;4.772;2023-08-20T10:02:18;102327.94;;;29.60;100.00
55490;BME280;44029;52.956;4.772;2023-08-20T10:04:44;102344.38;;;28.78;100.00
55490;BME280;44029;52.956;4.772;2023-08-20T10:07:10;102337.56;;;28.87;100.00
55490;BME280;44029;52.956;4.772;2023-08-20T10:09:38;102347.41;;;28.08;100.00
55490;BME280;44029;52.956;4.772;2023-08-20T10:12:04;102344.81;;;28.59;100.00
55490;BME280;44029;52.956;4.772;2023-08-20T10:14:30;102336.97;;;29.03;100.00
55490;BME280;44029;52.956;4.772;2023-08-20T10:16:56;102342.94;;;28.71;100.00
55490;BME280;44029;52.956;4.772;2023-08-20T10:19:23;102340.84;;;28.60;100.00
55490;BME280;44029;52.956;4.772;2023-08-20T10:21:52;102342.31;;;28.57;100.00
55490;BME280;44029;52.956;4.772;2023-08-20T10:24:18;102349.22;;;28.68;100.00
55490;BME280;44029;52.956;4.772;2023-08-20T10:26:48;102353.31;;;28.41;100.00
55490;BME280;44029;52.956;4.772;2023-08-20T10:32:04;102347.31;;;28.90;100.00
55490;BME280;44029;52.956;4.772;2023-08-20T10:34:35;102356.03;;;28.03;100.00
55490;BME280;44029;52.956;4.772;2023-08-20T10:37:08;102355.00;;;27.81;100.00
55490;BME280;44029;52.956;4.772;2023-08-20T10:39:33;102345.22;;;27.61;100.00
55490;BME280;44029;52.956;4.772;2023-08-20T10:42:22;102349.41;;;27.90;100.00
55490;BME280;44029;52.956;4.772;2023-08-20T10:45:07;102342.84;;;28.33;100.00
55490;BME280;44029;52.956;4.772;2023-08-20T10:47:45;102341.16;;;28.58;100.00
55490;BME280;44029;52.956;4.772;2023-08-20T10:50:12;102346.22;;;28.73;100.00
55490;BME280;44029;52.956;4.772;2023-08-20T10:52:41;102336.69;;;28.57;100.00
55490;BME280;44029;52.956;4.772;2023-08-20T10:55:08;102343.09;;;27.84;100.00
55490;BME280;44029;52.956;4.772;2023-08-20T10:57:35;102356.28;;;28.36;100.00
55490;BME280;44029;52.956;4.772;2023-08-20T11:00:03;102354.94;;;28.33;100.00
55490;BME280;44029;52.956;4.772;2023-08-20T11:02:35;102358.97;;;28.15;100.00
55490;BME280;44029;52.956;4.772;2023-08-20T11:05:02;102351.88;;;27.65;100.00
55490;BME280;44029;52.956;4.772;2023-08-20T11:07:28;102357.97;;;27.76;100.00
55490;BME280;44029;52.956;4.772;2023-08-20T11:09:57;102364.31;;;27.90;100.00
55490;BME280;44029;52.956;4.772;2023-08-20T11:12:22;102362.47;;;27.77;100.00
55490;BME280;44029;52.956;4.772;2023-08-20T11:14:47;102357.00;;;27.81;100.00
55490;BME280;44029;52.956;4.772;2023-08-20T11:17:13;102362.09;;;28.22;100.00
55490;BME280;44029;52.956;4.772;2023-08-20T11:19:38;102354.69;;;28.18;100.00
55490;BME280;44029;52.956;4.772;2023-08-20T11:22:04;102359.41;;;28.43;100.00
55490;BME280;44029;52.956;4.772;2023-08-20T11:24:30;102360.22;;;28.61;100.00
55490;BME280;44029;52.956;4.772;2023-08-20T11:26:55;102368.25;;;27.81;100.00
55490;BME280;44029;52.956;4.772;2023-08-20T11:29:21;102366.78;;;27.74;100.00
55490;BME280;44029;52.956;4.772;2023-08-20T11:31:47;102360.94;;;27.36;100.00
55490;BME280;44029;52.956;4.772;2023-08-20T11:34:13;102353.50;;;27.57;100.00
55490;BME280;44029;52.956;4.772;2023-08-20T11:36:39;102355.53;;;28.01;100.00
55490;BME280;44029;52.956;4.772;2023-08-20T11:39:08;102357.97;;;28.28;100.00
55490;BME280;44029;52.956;4.772;2023-08-20T11:41:37;102359.44;;;28.34;100.00
55490;BME280;44029;52.956;4.772;2023-08-20T11:44:03;102354.31;;;27.41;100.00
55490;BME280;44029;52.956;4.772;2023-08-20T11:46:29;102350.38;;;27.68;100.00
55490;BME280;44029;52.956;4.772;2023-08-20T11:49:10;102361.13;;;27.83;100.00
55490;BME280;44029;52.956;4.772;2023-08-20T11:51:36;102356.19;;;28.06;100.00
55490;BME280;44029;52.956;4.772;2023-08-20T11:54:04;102351.53;;;28.02;100.00
55490;BME280;44029;52.956;4.772;2023-08-20T11:56:30;102356.69;;;28.08;100.00
55490;BME280;44029;52.956;4.772;2023-08-20T11:58:59;102347.28;;;28.60;100.00
55490;BME280;44029;52.956;4.772;2023-08-20T12:01:25;102343.25;;;27.96;100.00
55490;BME280;44029;52.956;4.772;2023-08-20T12:03:50;102359.81;;;28.15;100.00
55490;BME280;44029;52.956;4.772;2023-08-20T12:06:21;102351.53;;;28.02;100.00
55490;BME280;44029;52.956;4.772;2023-08-20T12:08:54;102360.63;;;28.16;100.00
55490;BME280;44029;52.956;4.772;2023-08-20T12:11:32;102355.75;;;28.43;100.00
55490;BME280;44029;52.956;4.772;2023-08-20T12:14:00;102369.72;;;27.78;100.00
55490;BME280;44029;52.956;4.772;2023-08-20T12:16:26;102367.63;;;28.10;100.00
55490;BME280;44029;52.956;4.772;2023-08-20T12:18:51;102371.75;;;28.04;100.00
55490;BME280;44029;52.956;4.772;2023-08-20T12:21:18;102377.88;;;27.71;100.00
55490;BME280;44029;52.956;4.772;2023-08-20T12:23:43;102385.19;;;27.14;100.00
55490;BME280;44029;52.956;4.772;2023-08-20T12:26:08;102382.50;;;27.67;100.00
55490;BME280;44029;52.956;4.772;2023-08-20T12:28:34;102383.34;;;27.67;100.00
55490;BME280;44029;52.956;4.772;2023-08-20T12:31:00;102382.00;;;27.65;100.00
55490;BME280;44029;52.956;4.772;2023-08-20T12:33:25;102389.31;;;28.09;100.00
55490;BME280;44029;52.956;4.772;2023-08-20T12:35:54;102387.81;;;27.60;100.00
55490;BME280;44029;52.956;4.772;2023-08-20T12:38:20;102390.22;;;27.35;100.00
55490;BME280;44029;52.956;4.772;2023-08-20T12:40:45;102390.44;;;27.56;100.00
55490;BME280;44029;52.956;4.772;2023-08-20T12:43:11;102380.63;;;27.45;100.00
55490;BME280;44029;52.956;4.772;2023-08-20T12:45:36;102378.19;;;27.43;100.00
55490;BME280;44029;52.956;4.772;2023-08-20T12:48:03;102375.19;;;27.40;100.00
55490;BME280;44029;52.956;4.772;2023-08-20T12:50:28;102372.56;;;28.13;100.00